Hauptseite
METAR-TAF:

METAR-TAF

Flughäfen :

Damaskus, Syrien

Flughafen Damaskus

Breite: 33-25N, Länge: 036-31E, Höhe: 608 m

Beobachtung

Neuester Wetterbericht von vor 42 Minuten, um 02:00 UTC
Wind 16 kt aus Süd/Südwest
Temperatur 24°C
Luftfeuchtigkeit 65%
Luftdruck 1010 hPa
Sichtweite 10 km oder mehr
keine Wolken unter 1500 m und keine Kumulonimbus oder Gewitterwolken

METAR: OSDI 280200Z 21016KT CAVOK 24/17 Q1010

Zeit: 05:42 (02:42 UTC)

Prognose

Gültige Prognose vom 28 um 00 UTC bis 29 um 06 UTC
Wind 3 kt aus unterschiedlichen Richtungen
Sichtweite 10 km oder mehr
keine Wolken unter 1500 m und keine Kumulonimbus oder Gewitterwolken
Zeitweise
vom 28 um 12 UTC bis 28 um 18 UTC
Wind 15 kt aus West/Südwest, Böen bis zu 25 kt
Sichtweite: 8000 m
Leicht bewölkt in der Höhe von 3000 ft

TAF: OSDI 2800/2906 VRB03KT CAVOK TEMPO 2812/2818 24015G25KT 8000 FEW030

Wetterbeobachtungen und Prognosen von mehr als 4000 Flughäfen (METAR und TAF Bericht).

Die verfügbaren Stationen werden durch gelbe und rote Markierungen auf der Karte dargestellt.

Führen Sie die Maus auf sie, um den Namen der Station zu sehen.

Darauf klicken, um die Beobachtung von Wetterbeobachtungen und Prognosen zu sehen.

Um die Karte zu ändern : klicken Sie auf den grünen Tasten mit einem schwarzen Kreuz Zum Vergrößern, auf den grünen Button mit einem Gedankenstrich zu verkleinern, oder auf die grünen Pfeile für benachbarte Karten.


METAR-TAF: